sensor_id;sensor_type;location;lat;lon;timestamp;pressure;altitude;pressure_sealevel;temperature;humidity
46303;BME280;32029;51.358;5.628;2023-08-20T00:02:23;101835.34;;;21.96;89.97
46303;BME280;32029;51.358;5.628;2023-08-20T00:04:51;101822.06;;;21.92;89.52
46303;BME280;32029;51.358;5.628;2023-08-20T00:07:19;101829.25;;;21.99;89.14
46303;BME280;32029;51.358;5.628;2023-08-20T00:09:46;101798.63;;;21.81;89.07
46303;BME280;32029;51.358;5.628;2023-08-20T00:12:13;101820.28;;;21.97;88.35
46303;BME280;32029;51.358;5.628;2023-08-20T00:17:25;101823.41;;;21.89;88.94
46303;BME280;32029;51.358;5.628;2023-08-20T00:19:54;101824.97;;;21.85;88.84
46303;BME280;32029;51.358;5.628;2023-08-20T00:22:23;101816.22;;;21.82;89.26
46303;BME280;32029;51.358;5.628;2023-08-20T00:24:52;101811.81;;;21.74;88.60
46303;BME280;32029;51.358;5.628;2023-08-20T00:27:20;101814.50;;;21.69;88.85
46303;BME280;32029;51.358;5.628;2023-08-20T00:29:48;101799.47;;;21.51;89.05
46303;BME280;32029;51.358;5.628;2023-08-20T00:32:16;101823.47;;;21.71;89.36
46303;BME280;32029;51.358;5.628;2023-08-20T00:34:44;101797.91;;;21.56;89.69
46303;BME280;32029;51.358;5.628;2023-08-20T00:37:11;101822.88;;;21.69;89.54
46303;BME280;32029;51.358;5.628;2023-08-20T00:39:39;101824.78;;;21.68;89.34
46303;BME280;32029;51.358;5.628;2023-08-20T00:42:07;101835.09;;;21.68;89.49
46303;BME280;32029;51.358;5.628;2023-08-20T00:44:35;101808.47;;;21.53;89.70
46303;BME280;32029;51.358;5.628;2023-08-20T00:47:04;101824.91;;;21.62;88.86
46303;BME280;32029;51.358;5.628;2023-08-20T00:49:32;101836.06;;;21.62;88.83
46303;BME280;32029;51.358;5.628;2023-08-20T00:51:59;101835.44;;;21.60;88.79
46303;BME280;32029;51.358;5.628;2023-08-20T00:54:27;101839.78;;;21.56;88.63
46303;BME280;32029;51.358;5.628;2023-08-20T00:56:55;101845.84;;;21.52;88.67
46303;BME280;32029;51.358;5.628;2023-08-20T00:59:23;101835.72;;;21.40;88.86
46303;BME280;32029;51.358;5.628;2023-08-20T01:01:51;101845.09;;;21.45;88.88
46303;BME280;32029;51.358;5.628;2023-08-20T01:04:18;101854.53;;;21.44;88.91
46303;BME280;32029;51.358;5.628;2023-08-20T01:06:56;101863.16;;;21.43;89.29
46303;BME280;32029;51.358;5.628;2023-08-20T01:12:00;101858.06;;;21.40;90.09
46303;BME280;32029;51.358;5.628;2023-08-20T01:14:30;101824.00;;;21.13;90.42
46303;BME280;32029;51.358;5.628;2023-08-20T01:16:57;101872.41;;;21.43;90.46
46303;BME280;32029;51.358;5.628;2023-08-20T01:19:25;101857.22;;;21.39;90.64
46303;BME280;32029;51.358;5.628;2023-08-20T01:27:51;101883.75;;;21.60;90.39
46303;BME280;32029;51.358;5.628;2023-08-20T01:30:20;101873.09;;;21.57;90.29
46303;BME280;32029;51.358;5.628;2023-08-20T01:32:53;101878.94;;;21.67;90.43
46303;BME280;32029;51.358;5.628;2023-08-20T01:35:24;101871.59;;;21.73;90.26
46303;BME280;32029;51.358;5.628;2023-08-20T01:37:51;101861.25;;;21.73;90.23
46303;BME280;32029;51.358;5.628;2023-08-20T01:40:18;101872.94;;;21.82;90.20
46303;BME280;32029;51.358;5.628;2023-08-20T01:42:46;101852.50;;;21.70;89.93
46303;BME280;32029;51.358;5.628;2023-08-20T01:45:14;101875.50;;;21.84;90.27
46303;BME280;32029;51.358;5.628;2023-08-20T01:47:40;101877.09;;;21.91;90.26
46303;BME280;32029;51.358;5.628;2023-08-20T01:50:09;101881.75;;;21.97;89.71
46303;BME280;32029;51.358;5.628;2023-08-20T01:52:35;101869.34;;;21.93;89.75
46303;BME280;32029;51.358;5.628;2023-08-20T01:55:03;101872.50;;;21.97;89.47
46303;BME280;32029;51.358;5.628;2023-08-20T01:57:31;101870.56;;;21.97;89.35
46303;BME280;32029;51.358;5.628;2023-08-20T01:59:59;101873.50;;;22.02;89.57
46303;BME280;32029;51.358;5.628;2023-08-20T02:02:26;101873.03;;;22.06;89.38
46303;BME280;32029;51.358;5.628;2023-08-20T02:04:54;101864.63;;;22.06;89.58
46303;BME280;32029;51.358;5.628;2023-08-20T02:07:21;101880.47;;;22.12;89.71
46303;BME280;32029;51.358;5.628;2023-08-20T02:09:48;101871.91;;;22.07;89.96
46303;BME280;32029;51.358;5.628;2023-08-20T02:12:15;101894.50;;;22.23;90.08
46303;BME280;32029;51.358;5.628;2023-08-20T02:14:42;101899.84;;;22.25;89.93
46303;BME280;32029;51.358;5.628;2023-08-20T02:17:08;101894.25;;;22.25;89.60
46303;BME280;32029;51.358;5.628;2023-08-20T02:19:35;101901.16;;;22.22;89.57
46303;BME280;32029;51.358;5.628;2023-08-20T02:22:02;101890.09;;;22.16;90.03
46303;BME280;32029;51.358;5.628;2023-08-20T02:24:29;101887.91;;;22.18;89.82
46303;BME280;32029;51.358;5.628;2023-08-20T02:26:56;101855.50;;;21.98;90.35
46303;BME280;32029;51.358;5.628;2023-08-20T02:29:23;101897.78;;;22.20;90.00
46303;BME280;32029;51.358;5.628;2023-08-20T02:31:50;101901.06;;;22.29;90.18
46303;BME280;32029;51.358;5.628;2023-08-20T02:34:17;101906.06;;;22.39;89.85
46303;BME280;32029;51.358;5.628;2023-08-20T02:36:43;101902.66;;;22.37;89.51
46303;BME280;32029;51.358;5.628;2023-08-20T02:39:10;101879.81;;;22.28;89.27
46303;BME280;32029;51.358;5.628;2023-08-20T02:41:37;101879.81;;;22.28;89.09
46303;BME280;32029;51.358;5.628;2023-08-20T02:44:04;101871.88;;;22.25;89.02
46303;BME280;32029;51.358;5.628;2023-08-20T02:46:31;101903.50;;;22.37;88.69
46303;BME280;32029;51.358;5.628;2023-08-20T02:48:58;101907.03;;;22.33;88.75
46303;BME280;32029;51.358;5.628;2023-08-20T02:51:25;101861.34;;;21.97;88.70
46303;BME280;32029;51.358;5.628;2023-08-20T02:53:51;101905.44;;;22.25;89.69
46303;BME280;32029;51.358;5.628;2023-08-20T02:56:18;101872.56;;;22.09;89.49
46303;BME280;32029;51.358;5.628;2023-08-20T02:58:45;101872.78;;;22.07;89.75
46303;BME280;32029;51.358;5.628;2023-08-20T03:01:23;101893.03;;;22.21;89.61
46303;BME280;32029;51.358;5.628;2023-08-20T03:03:50;101866.22;;;22.01;89.64
46303;BME280;32029;51.358;5.628;2023-08-20T03:06:17;101867.06;;;22.02;89.37
46303;BME280;32029;51.358;5.628;2023-08-20T03:08:44;101871.66;;;21.96;89.66
46303;BME280;32029;51.358;5.628;2023-08-20T03:11:10;101855.22;;;21.88;89.38
46303;BME280;32029;51.358;5.628;2023-08-20T03:13:38;101860.19;;;21.86;89.29
46303;BME280;32029;51.358;5.628;2023-08-20T03:16:06;101850.59;;;21.82;89.22
46303;BME280;32029;51.358;5.628;2023-08-20T03:18:34;101861.00;;;21.75;89.69
46303;BME280;32029;51.358;5.628;2023-08-20T03:21:00;101858.94;;;21.70;89.50
46303;BME280;32029;51.358;5.628;2023-08-20T03:23:27;101863.50;;;21.65;90.17
46303;BME280;32029;51.358;5.628;2023-08-20T03:25:57;101858.41;;;21.62;90.29
46303;BME280;32029;51.358;5.628;2023-08-20T03:28:26;101823.31;;;21.36;90.28
46303;BME280;32029;51.358;5.628;2023-08-20T03:30:53;101852.84;;;21.43;90.25
46303;BME280;32029;51.358;5.628;2023-08-20T03:33:20;101860.13;;;21.44;90.12
46303;BME280;32029;51.358;5.628;2023-08-20T03:35:47;101837.19;;;21.24;90.12
46303;BME280;32029;51.358;5.628;2023-08-20T03:38:13;101853.94;;;21.24;90.64
46303;BME280;32029;51.358;5.628;2023-08-20T03:40:41;101882.19;;;21.34;90.78
46303;BME280;32029;51.358;5.628;2023-08-20T03:43:08;101869.81;;;21.23;91.33
46303;BME280;32029;51.358;5.628;2023-08-20T03:45:36;101864.31;;;21.17;90.98
46303;BME280;32029;51.358;5.628;2023-08-20T03:48:04;101882.28;;;21.21;91.37
46303;BME280;32029;51.358;5.628;2023-08-20T03:50:30;101857.41;;;21.01;91.38
46303;BME280;32029;51.358;5.628;2023-08-20T03:52:57;101876.88;;;21.08;91.69
46303;BME280;32029;51.358;5.628;2023-08-20T03:55:25;101871.81;;;20.98;91.77
46303;BME280;32029;51.358;5.628;2023-08-20T03:57:53;101839.03;;;20.75;91.64
46303;BME280;32029;51.358;5.628;2023-08-20T04:00:20;101884.78;;;20.92;91.74
46303;BME280;32029;51.358;5.628;2023-08-20T04:02:47;101871.97;;;20.85;91.86
46303;BME280;32029;51.358;5.628;2023-08-20T04:05:14;101860.09;;;20.71;92.43
46303;BME280;32029;51.358;5.628;2023-08-20T04:07:42;101900.25;;;20.88;92.24
46303;BME280;32029;51.358;5.628;2023-08-20T04:10:08;101886.78;;;20.85;92.73
46303;BME280;32029;51.358;5.628;2023-08-20T04:12:36;101881.94;;;20.74;92.60
46303;BME280;32029;51.358;5.628;2023-08-20T04:15:04;101899.72;;;20.79;92.47
46303;BME280;32029;51.358;5.628;2023-08-20T04:17:30;101881.78;;;20.69;92.62
46303;BME280;32029;51.358;5.628;2023-08-20T04:19:57;101892.94;;;20.69;92.58
46303;BME280;32029;51.358;5.628;2023-08-20T04:22:24;101874.63;;;20.54;92.93
46303;BME280;32029;51.358;5.628;2023-08-20T04:24:53;101888.75;;;20.60;92.58
46303;BME280;32029;51.358;5.628;2023-08-20T04:27:19;101881.72;;;20.50;92.53
46303;BME280;32029;51.358;5.628;2023-08-20T04:29:47;101866.81;;;20.38;92.74
46303;BME280;32029;51.358;5.628;2023-08-20T04:32:14;101886.88;;;20.47;93.03
46303;BME280;32029;51.358;5.628;2023-08-20T04:34:40;101874.16;;;20.33;92.76
46303;BME280;32029;51.358;5.628;2023-08-20T04:37:08;101876.47;;;20.36;92.83
46303;BME280;32029;51.358;5.628;2023-08-20T04:39:35;101885.06;;;20.34;92.71
46303;BME280;32029;51.358;5.628;2023-08-20T04:42:03;101905.59;;;20.40;92.99
46303;BME280;32029;51.358;5.628;2023-08-20T04:44:29;101910.50;;;20.44;93.67
46303;BME280;32029;51.358;5.628;2023-08-20T04:46:57;101914.34;;;20.43;93.76
46303;BME280;32029;51.358;5.628;2023-08-20T04:49:24;101919.91;;;20.43;94.18
46303;BME280;32029;51.358;5.628;2023-08-20T04:51:55;101919.06;;;20.43;94.75
46303;BME280;32029;51.358;5.628;2023-08-20T04:54:23;101917.41;;;20.35;94.95
46303;BME280;32029;51.358;5.628;2023-08-20T04:56:50;101925.50;;;20.43;94.67
46303;BME280;32029;51.358;5.628;2023-08-20T04:59:16;101889.22;;;20.25;95.17
46303;BME280;32029;51.358;5.628;2023-08-20T05:01:43;101911.63;;;20.37;95.41
46303;BME280;32029;51.358;5.628;2023-08-20T05:04:10;101922.94;;;20.42;94.97
46303;BME280;32029;51.358;5.628;2023-08-20T05:06:37;101909.78;;;20.24;95.83
46303;BME280;32029;51.358;5.628;2023-08-20T05:09:04;101925.50;;;20.43;95.44
46303;BME280;32029;51.358;5.628;2023-08-20T05:11:31;101902.47;;;20.29;95.47
46303;BME280;32029;51.358;5.628;2023-08-20T05:14:00;101892.28;;;20.17;95.60
46303;BME280;32029;51.358;5.628;2023-08-20T05:16:27;101911.63;;;20.37;95.37
46303;BME280;32029;51.358;5.628;2023-08-20T05:18:54;101905.06;;;20.24;95.75
46303;BME280;32029;51.358;5.628;2023-08-20T05:21:21;101896.09;;;20.22;95.44
46303;BME280;32029;51.358;5.628;2023-08-20T05:23:48;101870.19;;;20.15;95.44
46303;BME280;32029;51.358;5.628;2023-08-20T05:26:15;101931.56;;;20.40;95.82
46303;BME280;32029;51.358;5.628;2023-08-20T05:28:41;101924.94;;;20.35;95.96
46303;BME280;32029;51.358;5.628;2023-08-20T05:31:10;101933.00;;;20.49;95.82
46303;BME280;32029;51.358;5.628;2023-08-20T05:33:37;101894.78;;;20.25;95.53
46303;BME280;32029;51.358;5.628;2023-08-20T05:36:04;101897.75;;;20.30;95.78
46303;BME280;32029;51.358;5.628;2023-08-20T05:38:30;101937.03;;;20.53;96.24
46303;BME280;32029;51.358;5.628;2023-08-20T05:40:57;101906.91;;;20.37;96.24
46303;BME280;32029;51.358;5.628;2023-08-20T05:43:24;101905.81;;;20.38;96.22
46303;BME280;32029;51.358;5.628;2023-08-20T05:45:50;101909.84;;;20.42;96.31
46303;BME280;32029;51.358;5.628;2023-08-20T05:48:17;101937.41;;;20.64;96.20
46303;BME280;32029;51.358;5.628;2023-08-20T05:50:44;101923.25;;;20.59;96.37
46303;BME280;32029;51.358;5.628;2023-08-20T05:53:12;101916.44;;;20.54;96.80
46303;BME280;32029;51.358;5.628;2023-08-20T05:55:38;101891.84;;;20.45;97.22
46303;BME280;32029;51.358;5.628;2023-08-20T05:58:06;101940.91;;;20.77;97.43
46303;BME280;32029;51.358;5.628;2023-08-20T06:00:32;101943.00;;;20.82;97.85
46303;BME280;32029;51.358;5.628;2023-08-20T06:02:59;101918.03;;;20.69;97.65
46303;BME280;32029;51.358;5.628;2023-08-20T06:05:26;101937.63;;;20.87;97.79
46303;BME280;32029;51.358;5.628;2023-08-20T06:07:52;101920.94;;;20.80;97.69
46303;BME280;32029;51.358;5.628;2023-08-20T06:10:19;101941.81;;;20.96;98.02
46303;BME280;32029;51.358;5.628;2023-08-20T06:12:46;101913.13;;;20.89;97.98
46303;BME280;32029;51.358;5.628;2023-08-20T06:15:17;101921.19;;;20.97;98.59
46303;BME280;32029;51.358;5.628;2023-08-20T06:17:43;101927.25;;;21.13;98.14
46303;BME280;32029;51.358;5.628;2023-08-20T06:20:11;101903.09;;;21.07;98.37
46303;BME280;32029;51.358;5.628;2023-08-20T06:22:38;101924.34;;;21.26;98.45
46303;BME280;32029;51.358;5.628;2023-08-20T06:25:05;101908.50;;;21.20;98.53
46303;BME280;32029;51.358;5.628;2023-08-20T06:27:32;101928.47;;;21.42;98.36
46303;BME280;32029;51.358;5.628;2023-08-20T06:29:58;101893.06;;;21.17;98.61
46303;BME280;32029;51.358;5.628;2023-08-20T06:32:27;101897.88;;;21.28;98.33
46303;BME280;32029;51.358;5.628;2023-08-20T06:34:53;101927.91;;;21.51;97.90
46303;BME280;32029;51.358;5.628;2023-08-20T06:37:20;101918.44;;;21.52;97.30
46303;BME280;32029;51.358;5.628;2023-08-20T06:39:47;101949.16;;;21.71;96.58
46303;BME280;32029;51.358;5.628;2023-08-20T06:42:13;101936.28;;;21.70;94.27
46303;BME280;32029;51.358;5.628;2023-08-20T06:44:40;101934.34;;;21.70;92.49
46303;BME280;32029;51.358;5.628;2023-08-20T06:47:07;101924.66;;;21.73;92.07
46303;BME280;32029;51.358;5.628;2023-08-20T06:49:34;101925.88;;;21.77;90.92
46303;BME280;32029;51.358;5.628;2023-08-20T06:52:02;101957.19;;;21.97;90.24
46303;BME280;32029;51.358;5.628;2023-08-20T06:54:29;101947.13;;;21.96;90.00
46303;BME280;32029;51.358;5.628;2023-08-20T06:56:56;101941.91;;;22.00;89.36
46303;BME280;32029;51.358;5.628;2023-08-20T06:59:22;101929.25;;;21.97;88.95
46303;BME280;32029;51.358;5.628;2023-08-20T07:01:49;101927.69;;;22.01;88.05
46303;BME280;32029;51.358;5.628;2023-08-20T07:04:16;101945.66;;;22.24;87.64
46303;BME280;32029;51.358;5.628;2023-08-20T07:06:43;101971.25;;;22.39;87.29
46303;BME280;32029;51.358;5.628;2023-08-20T07:09:09;101966.25;;;22.41;86.90
46303;BME280;32029;51.358;5.628;2023-08-20T07:11:36;101923.53;;;22.22;85.81
46303;BME280;32029;51.358;5.628;2023-08-20T07:14:03;101941.09;;;22.41;85.15
46303;BME280;32029;51.358;5.628;2023-08-20T07:16:29;101963.75;;;22.63;84.44
46303;BME280;32029;51.358;5.628;2023-08-20T07:18:56;101961.06;;;22.57;84.72
46303;BME280;32029;51.358;5.628;2023-08-20T07:21:23;101948.03;;;22.62;83.35
46303;BME280;32029;51.358;5.628;2023-08-20T07:23:50;101948.41;;;22.66;83.39
46303;BME280;32029;51.358;5.628;2023-08-20T07:26:17;101960.50;;;22.78;82.96
46303;BME280;32029;51.358;5.628;2023-08-20T07:28:44;101956.97;;;22.83;82.29
46303;BME280;32029;51.358;5.628;2023-08-20T07:31:28;101967.59;;;22.92;81.98
46303;BME280;32029;51.358;5.628;2023-08-20T07:33:55;101952.97;;;22.90;82.07
46303;BME280;32029;51.358;5.628;2023-08-20T07:36:23;101976.97;;;23.10;81.03
46303;BME280;32029;51.358;5.628;2023-08-20T07:38:51;101960.03;;;23.05;79.42
46303;BME280;32029;51.358;5.628;2023-08-20T07:41:20;101973.56;;;23.19;78.64
46303;BME280;32029;51.358;5.628;2023-08-20T07:43:48;101952.00;;;23.20;78.18
46303;BME280;32029;51.358;5.628;2023-08-20T07:46:16;101959.34;;;23.21;76.76
46303;BME280;32029;51.358;5.628;2023-08-20T07:48:42;101959.91;;;23.23;76.69
46303;BME280;32029;51.358;5.628;2023-08-20T07:51:10;101983.03;;;23.42;77.27
46303;BME280;32029;51.358;5.628;2023-08-20T07:53:36;101954.56;;;23.33;76.77
46303;BME280;32029;51.358;5.628;2023-08-20T07:56:04;101973.41;;;23.50;76.62
46303;BME280;32029;51.358;5.628;2023-08-20T07:58:31;101964.16;;;23.49;77.03
46303;BME280;32029;51.358;5.628;2023-08-20T08:00:58;101959.88;;;23.58;76.10
46303;BME280;32029;51.358;5.628;2023-08-20T08:03:27;101955.59;;;23.56;76.32
46303;BME280;32029;51.358;5.628;2023-08-20T08:05:54;101952.94;;;23.61;75.72
46303;BME280;32029;51.358;5.628;2023-08-20T08:08:21;101954.00;;;23.60;75.69
46303;BME280;32029;51.358;5.628;2023-08-20T08:10:49;101949.50;;;23.59;76.20
46303;BME280;32029;51.358;5.628;2023-08-20T08:13:22;101998.31;;;23.86;76.03
46303;BME280;32029;51.358;5.628;2023-08-20T08:15:50;101996.63;;;23.85;74.75
46303;BME280;32029;51.358;5.628;2023-08-20T08:18:18;101986.41;;;23.79;75.47
46303;BME280;32029;51.358;5.628;2023-08-20T08:20:49;101979.34;;;23.77;74.80
46303;BME280;32029;51.358;5.628;2023-08-20T08:23:25;102001.00;;;23.93;74.84
46303;BME280;32029;51.358;5.628;2023-08-20T08:25:55;101980.31;;;23.82;74.90
46303;BME280;32029;51.358;5.628;2023-08-20T08:28:24;102008.50;;;24.04;75.04
46303;BME280;32029;51.358;5.628;2023-08-20T08:30:57;101961.03;;;23.86;75.41
46303;BME280;32029;51.358;5.628;2023-08-20T08:33:24;102012.47;;;24.20;75.10
46303;BME280;32029;51.358;5.628;2023-08-20T08:35:53;101997.25;;;24.16;74.69
46303;BME280;32029;51.358;5.628;2023-08-20T08:38:21;101983.25;;;24.16;74.32
46303;BME280;32029;51.358;5.628;2023-08-20T08:40:51;102006.56;;;24.33;74.23
46303;BME280;32029;51.358;5.628;2023-08-20T08:43:20;102019.13;;;24.42;74.15
46303;BME280;32029;51.358;5.628;2023-08-20T08:46:00;101999.13;;;24.39;74.66
46303;BME280;32029;51.358;5.628;2023-08-20T08:48:31;101991.94;;;24.31;75.03
46303;BME280;32029;51.358;5.628;2023-08-20T08:51:03;101994.84;;;24.36;75.22
46303;BME280;32029;51.358;5.628;2023-08-20T08:53:32;102019.56;;;24.51;75.75
46303;BME280;32029;51.358;5.628;2023-08-20T08:56:05;101997.25;;;24.44;75.25
46303;BME280;32029;51.358;5.628;2023-08-20T08:58:39;102015.50;;;24.59;76.02
46303;BME280;32029;51.358;5.628;2023-08-20T09:01:11;102022.88;;;24.65;75.82
46303;BME280;32029;51.358;5.628;2023-08-20T09:03:45;101997.19;;;24.56;75.82
46303;BME280;32029;51.358;5.628;2023-08-20T09:06:13;102019.78;;;24.78;75.74
46303;BME280;32029;51.358;5.628;2023-08-20T09:08:40;101995.28;;;24.74;74.79
46303;BME280;32029;51.358;5.628;2023-08-20T09:11:08;101980.78;;;24.65;75.17
46303;BME280;32029;51.358;5.628;2023-08-20T09:13:39;102004.47;;;24.86;74.93
46303;BME280;32029;51.358;5.628;2023-08-20T09:16:09;102018.75;;;25.01;75.24
46303;BME280;32029;51.358;5.628;2023-08-20T09:18:44;102004.97;;;25.00;75.05
46303;BME280;32029;51.358;5.628;2023-08-20T09:21:13;102020.41;;;25.14;74.10
46303;BME280;32029;51.358;5.628;2023-08-20T09:23:45;101994.94;;;25.04;73.29
46303;BME280;32029;51.358;5.628;2023-08-20T09:26:12;102010.44;;;25.23;74.24
46303;BME280;32029;51.358;5.628;2023-08-20T09:28:43;102000.25;;;25.17;73.03
46303;BME280;32029;51.358;5.628;2023-08-20T09:31:11;102012.56;;;25.33;73.44
46303;BME280;32029;51.358;5.628;2023-08-20T09:33:51;102002.09;;;25.28;73.18
46303;BME280;32029;51.358;5.628;2023-08-20T09:36:18;102005.50;;;25.30;72.59
46303;BME280;32029;51.358;5.628;2023-08-20T09:38:51;102007.00;;;25.38;72.58
46303;BME280;32029;51.358;5.628;2023-08-20T09:41:18;102007.34;;;25.41;73.02
46303;BME280;32029;51.358;5.628;2023-08-20T09:43:47;101996.09;;;25.41;72.68
46303;BME280;32029;51.358;5.628;2023-08-20T09:46:16;101979.75;;;25.38;72.27
46303;BME280;32029;51.358;5.628;2023-08-20T09:48:48;101982.66;;;25.44;70.76
46303;BME280;32029;51.358;5.628;2023-08-20T09:51:19;102013.59;;;25.65;70.05
46303;BME280;32029;51.358;5.628;2023-08-20T09:54:00;102008.63;;;25.73;71.54
46303;BME280;32029;51.358;5.628;2023-08-20T09:56:30;102003.69;;;25.80;71.46
46303;BME280;32029;51.358;5.628;2023-08-20T09:58:58;102007.16;;;25.87;70.33
46303;BME280;32029;51.358;5.628;2023-08-20T10:01:27;101982.34;;;25.79;70.23
46303;BME280;32029;51.358;5.628;2023-08-20T10:03:54;102003.38;;;25.98;71.13
46303;BME280;32029;51.358;5.628;2023-08-20T10:06:23;101988.41;;;25.93;70.97
46303;BME280;32029;51.358;5.628;2023-08-20T10:08:51;101965.53;;;25.84;70.54
46303;BME280;32029;51.358;5.628;2023-08-20T10:11:18;101979.25;;;26.02;69.86
46303;BME280;32029;51.358;5.628;2023-08-20T10:13:46;102009.47;;;26.17;69.60
46303;BME280;32029;51.358;5.628;2023-08-20T10:16:13;102007.28;;;26.19;68.67
46303;BME280;32029;51.358;5.628;2023-08-20T10:18:40;101986.94;;;26.12;66.61
46303;BME280;32029;51.358;5.628;2023-08-20T10:21:08;102015.28;;;26.32;65.88
46303;BME280;32029;51.358;5.628;2023-08-20T10:23:40;102017.56;;;26.35;64.99
46303;BME280;32029;51.358;5.628;2023-08-20T10:26:10;102014.81;;;26.40;63.61
46303;BME280;32029;51.358;5.628;2023-08-20T10:28:40;101992.53;;;26.34;62.95
46303;BME280;32029;51.358;5.628;2023-08-20T10:31:09;102006.78;;;26.49;63.93
46303;BME280;32029;51.358;5.628;2023-08-20T10:36:18;102012.81;;;26.63;62.19
46303;BME280;32029;51.358;5.628;2023-08-20T10:38:49;101989.59;;;26.46;60.24
46303;BME280;32029;51.358;5.628;2023-08-20T10:41:16;101994.13;;;26.52;59.18
46303;BME280;32029;51.358;5.628;2023-08-20T10:43:50;102000.69;;;26.57;59.13
46303;BME280;32029;51.358;5.628;2023-08-20T10:48:53;102006.06;;;26.64;58.28
46303;BME280;32029;51.358;5.628;2023-08-20T10:56:54;102009.31;;;26.78;57.98
46303;BME280;32029;51.358;5.628;2023-08-20T10:59:26;101996.84;;;26.69;58.58
46303;BME280;32029;51.358;5.628;2023-08-20T11:01:55;102016.75;;;26.89;58.29
46303;BME280;32029;51.358;5.628;2023-08-20T11:04:25;102007.97;;;26.85;57.81
46303;BME280;32029;51.358;5.628;2023-08-20T11:06:57;102013.63;;;26.91;58.33
46303;BME280;32029;51.358;5.628;2023-08-20T11:09:26;102016.56;;;27.01;56.99
46303;BME280;32029;51.358;5.628;2023-08-20T11:11:54;102010.06;;;27.00;56.53
46303;BME280;32029;51.358;5.628;2023-08-20T11:14:22;102012.66;;;27.07;57.33
46303;BME280;32029;51.358;5.628;2023-08-20T11:16:50;101966.09;;;26.94;57.30
46303;BME280;32029;51.358;5.628;2023-08-20T11:19:22;101979.41;;;27.04;57.52
46303;BME280;32029;51.358;5.628;2023-08-20T11:21:51;102007.22;;;27.27;56.64
46303;BME280;32029;51.358;5.628;2023-08-20T11:24:18;102006.66;;;27.30;56.04
46303;BME280;32029;51.358;5.628;2023-08-20T11:26:50;101997.13;;;27.36;55.66
46303;BME280;32029;51.358;5.628;2023-08-20T11:29:18;101990.66;;;27.36;55.58
46303;BME280;32029;51.358;5.628;2023-08-20T11:31:50;101979.94;;;27.38;55.73
46303;BME280;32029;51.358;5.628;2023-08-20T11:34:18;101997.53;;;27.55;55.78
46303;BME280;32029;51.358;5.628;2023-08-20T11:36:46;101975.81;;;27.51;55.63
46303;BME280;32029;51.358;5.628;2023-08-20T11:39:14;101993.34;;;27.63;55.19
46303;BME280;32029;51.358;5.628;2023-08-20T11:41:41;101979.22;;;27.58;55.22
46303;BME280;32029;51.358;5.628;2023-08-20T11:44:08;101980.63;;;27.66;55.22
46303;BME280;32029;51.358;5.628;2023-08-20T11:46:42;101996.25;;;27.78;55.36
46303;BME280;32029;51.358;5.628;2023-08-20T11:49:11;101979.00;;;27.70;55.89
46303;BME280;32029;51.358;5.628;2023-08-20T11:51:40;101977.66;;;27.77;55.47
46303;BME280;32029;51.358;5.628;2023-08-20T11:54:09;101988.97;;;27.88;54.77
46303;BME280;32029;51.358;5.628;2023-08-20T11:56:45;101977.66;;;27.82;55.57
46303;BME280;32029;51.358;5.628;2023-08-20T11:59:13;101970.34;;;27.87;54.73
46303;BME280;32029;51.358;5.628;2023-08-20T12:01:41;101971.50;;;27.91;54.86
46303;BME280;32029;51.358;5.628;2023-08-20T12:04:09;101946.09;;;27.86;54.19
46303;BME280;32029;51.358;5.628;2023-08-20T12:06:38;101960.81;;;27.98;54.60
46303;BME280;32029;51.358;5.628;2023-08-20T12:09:19;101937.66;;;27.91;54.80
46303;BME280;32029;51.358;5.628;2023-08-20T12:11:51;101945.31;;;28.05;54.52
46303;BME280;32029;51.358;5.628;2023-08-20T12:14:19;101960.81;;;28.08;53.46
46303;BME280;32029;51.358;5.628;2023-08-20T12:16:46;101966.75;;;28.12;53.63
46303;BME280;32029;51.358;5.628;2023-08-20T12:19:14;101967.06;;;28.15;54.40
46303;BME280;32029;51.358;5.628;2023-08-20T12:21:41;101947.03;;;28.17;55.99
46303;BME280;32029;51.358;5.628;2023-08-20T12:24:10;101927.56;;;28.20;56.70
46303;BME280;32029;51.358;5.628;2023-08-20T12:26:38;101945.69;;;28.45;56.40
46303;BME280;32029;51.358;5.628;2023-08-20T12:29:05;101949.09;;;28.52;56.21
46303;BME280;32029;51.358;5.628;2023-08-20T12:31:34;101947.94;;;28.63;54.60
46303;BME280;32029;51.358;5.628;2023-08-20T12:34:01;101923.41;;;28.53;53.54
46303;BME280;32029;51.358;5.628;2023-08-20T12:36:29;101932.72;;;28.64;52.85
46303;BME280;32029;51.358;5.628;2023-08-20T12:38:59;101940.03;;;28.70;51.97
46303;BME280;32029;51.358;5.628;2023-08-20T12:41:26;101893.75;;;28.46;52.39
46303;BME280;32029;51.358;5.628;2023-08-20T12:43:52;101937.25;;;28.75;52.28
46303;BME280;32029;51.358;5.628;2023-08-20T12:46:19;101926.78;;;28.71;52.91
46303;BME280;32029;51.358;5.628;2023-08-20T12:48:46;101923.66;;;28.77;53.33
46303;BME280;32029;51.358;5.628;2023-08-20T12:51:13;101939.19;;;28.90;53.57
46303;BME280;32029;51.358;5.628;2023-08-20T12:53:40;101957.84;;;29.01;53.41
46303;BME280;32029;51.358;5.628;2023-08-20T12:56:07;101945.16;;;29.04;51.83
46303;BME280;32029;51.358;5.628;2023-08-20T12:58:37;101927.91;;;28.95;52.80
46303;BME280;32029;51.358;5.628;2023-08-20T13:01:04;101948.78;;;29.10;53.04
46303;BME280;32029;51.358;5.628;2023-08-20T13:03:31;101950.78;;;29.14;52.92
46303;BME280;32029;51.358;5.628;2023-08-20T13:05:58;101943.69;;;29.17;52.10
46303;BME280;32029;51.358;5.628;2023-08-20T13:08:25;101921.13;;;28.96;52.20
46303;BME280;32029;51.358;5.628;2023-08-20T13:10:55;101944.88;;;29.11;51.92
46303;BME280;32029;51.358;5.628;2023-08-20T13:13:25;101938.66;;;29.03;52.51
46303;BME280;32029;51.358;5.628;2023-08-20T13:15:52;101947.69;;;29.11;53.31
46303;BME280;32029;51.358;5.628;2023-08-20T13:18:21;101937.78;;;29.13;52.90